Time;durP1;ratioP1;P1;durP2;ratioP2;P2;SDS_P1;SDS_P2;PMS_P1;PMS_P2;Temp;Humidity;BMP_temperature;BMP_pressure;BME280_temperature;BME280_humidity;BME280_pressure;Samples;Min_cycle;Max_cycle;Signal;HPM_P1;HPM_P2
2022/11/04 00:02:28;;;;;;;2.60;1.38;;;;;;;10.43;100.00;100049.97;10587546;28;20473;-72
2022/11/04 00:12:47;;;;;;;2.30;1.67;;;;;;;10.53;100.00;100067.59;10586896;28;20059;-73
2022/11/04 00:17:48;;;;;;;3.83;1.33;;;;;;;10.58;100.00;100067.78;10587560;28;20032;-73
2022/11/04 00:33:36;;;;;;;7.85;1.77;;;;;;;10.42;100.00;100080.78;10586239;28;20035;-73
2022/11/04 00:38:36;;;;;;;1.55;1.33;;;;;;;10.45;100.00;100079.53;10586665;28;20032;-75
2022/11/04 00:43:37;;;;;;;14.07;2.28;;;;;;;10.48;100.00;100093.44;10586977;28;20040;-74
2022/11/04 00:48:37;;;;;;;5.85;1.83;;;;;;;10.43;100.00;100092.44;10585656;28;20077;-74
2022/11/04 00:53:38;;;;;;;8.82;1.27;;;;;;;10.36;100.00;100100.59;10586324;28;20043;-74
2022/11/04 00:58:38;;;;;;;3.22;1.63;;;;;;;10.36;100.00;100113.28;10585730;28;20177;-73
2022/11/04 01:03:39;;;;;;;5.97;1.73;;;;;;;10.30;100.00;100123.09;10584402;28;20537;-73
2022/11/04 01:08:39;;;;;;;5.13;1.45;;;;;;;10.30;100.00;100133.91;10585818;28;20035;-74
2022/11/04 01:13:40;;;;;;;2.63;1.20;;;;;;;10.15;100.00;100142.28;10588101;28;20134;-73
2022/11/04 01:18:40;;;;;;;1.75;1.65;;;;;;;10.02;100.00;100135.03;10568935;28;20081;-74
2022/11/04 01:23:41;;;;;;;3.42;1.58;;;;;;;9.93;100.00;100144.44;10591359;28;20502;-73
2022/11/04 01:28:41;;;;;;;2.00;1.38;;;;;;;9.83;100.00;100152.16;10596272;28;20023;-74
2022/11/04 01:33:42;;;;;;;1.15;0.90;;;;;;;9.79;100.00;100161.69;10603370;28;20070;-74
2022/11/04 01:38:43;;;;;;;6.65;1.35;;;;;;;9.71;100.00;100162.78;10596429;28;20039;-75
2022/11/04 01:43:56;;;;;;;0.93;0.93;;;;;;;9.69;100.00;100174.81;10585526;28;20130;-74
2022/11/04 01:49:10;;;;;;;1.75;1.10;;;;;;;9.58;100.00;100176.31;10586190;28;20122;-71
2022/11/04 01:54:11;;;;;;;1.50;1.42;;;;;;;9.61;100.00;100185.88;10584195;28;20458;-70
2022/11/04 01:59:23;;;;;;;6.88;2.50;;;;;;;9.63;100.00;100181.91;10582415;28;20039;-73
2022/11/04 02:04:26;;;;;;;2.45;1.45;;;;;;;9.58;100.00;100181.72;10584357;28;20096;-72
2022/11/04 02:09:28;;;;;;;2.53;2.33;;;;;;;9.67;100.00;100193.16;10565904;28;20118;-73
2022/11/04 02:14:30;;;;;;;2.65;2.45;;;;;;;9.72;100.00;100193.34;10582744;28;20364;-73
2022/11/04 02:20:04;;;;;;;6.03;2.80;;;;;;;9.70;100.00;100200.81;10582286;28;20141;-72
2022/11/04 02:25:29;;;;;;;5.55;4.13;;;;;;;9.69;100.00;100204.56;10581553;28;20058;-71
2022/11/04 02:30:33;;;;;;;10.95;7.07;;;;;;;9.61;100.00;100202.09;10583298;28;20088;-72
2022/11/04 02:35:42;;;;;;;13.52;6.43;;;;;;;9.50;100.00;100198.94;10580256;28;20028;-73
2022/11/04 02:40:56;;;;;;;9.85;6.70;;;;;;;9.35;100.00;100200.19;10581782;28;20020;-73
2022/11/04 02:46:04;;;;;;;9.57;8.45;;;;;;;9.22;100.00;100206.41;10585418;28;20039;-72
2022/11/04 02:51:21;;;;;;;13.35;10.65;;;;;;;9.09;100.00;100199.13;10591115;28;20035;-72
2022/11/04 02:56:21;;;;;;;19.50;13.27;;;;;;;9.01;100.00;100199.31;10589468;28;20034;-73
2022/11/04 03:01:22;;;;;;;20.25;11.20;;;;;;;8.94;100.00;100201.19;10589440;28;20123;-73
2022/11/04 03:06:23;;;;;;;17.88;12.70;;;;;;;8.90;100.00;100195.31;10571817;28;20023;-73
2022/11/04 03:11:24;;;;;;;17.35;11.73;;;;;;;8.89;100.00;100204.47;10589122;28;20394;-73
2022/11/04 03:16:49;;;;;;;15.43;12.18;;;;;;;8.84;100.00;100206.97;10587809;28;20043;-73
2022/11/04 03:21:57;;;;;;;26.52;15.00;;;;;;;8.88;100.00;100219.03;10575114;28;20027;-73
2022/11/04 03:26:59;;;;;;;15.50;12.65;;;;;;;8.89;100.00;100220.69;10588548;28;20503;-73
2022/11/04 03:32:07;;;;;;;16.02;12.23;;;;;;;8.83;100.00;100224.19;10588404;28;20031;-73
2022/11/04 03:37:09;;;;;;;23.55;12.60;;;;;;;8.76;100.00;100216.06;10587523;28;20031;-72
2022/11/04 03:42:19;;;;;;;20.85;12.95;;;;;;;8.78;100.00;100230.19;10586804;28;20035;-72
2022/11/04 03:47:23;;;;;;;24.50;13.65;;;;;;;8.78;100.00;100243.69;10588628;28;20038;-73
2022/11/04 03:52:24;;;;;;;16.25;13.10;;;;;;;8.69;100.00;100239.50;10587116;28;20522;-73
2022/11/04 03:57:45;;;;;;;15.50;11.77;;;;;;;8.65;100.00;100237.41;10587386;28;20035;-75
2022/11/04 04:03:03;;;;;;;14.32;10.70;;;;;;;8.67;100.00;100256.94;10569463;28;20403;-73
2022/11/04 04:08:23;;;;;;;17.50;8.85;;;;;;;8.68;100.00;100255.88;10588716;28;20043;-72
2022/11/04 04:13:35;;;;;;;21.50;9.15;;;;;;;8.64;100.00;100268.13;10587398;28;20040;-72
2022/11/04 04:18:39;;;;;;;9.65;5.63;;;;;;;8.56;100.00;100278.06;10589027;28;20110;-72
2022/11/04 04:29:00;;;;;;;16.92;5.53;;;;;;;8.39;100.00;100276.72;10571142;28;20111;-72
2022/11/04 04:34:01;;;;;;;10.73;6.07;;;;;;;8.35;100.00;100283.50;10569073;28;20106;-73
2022/11/04 04:49:50;;;;;;;8.75;4.88;;;;;;;8.33;100.00;100312.56;10584776;28;20061;-72
2022/11/04 04:54:51;;;;;;;6.15;4.20;;;;;;;8.35;100.00;100311.31;10585504;28;20378;-72
2022/11/04 04:59:51;;;;;;;9.63;3.75;;;;;;;8.43;100.00;100315.78;10585079;28;20036;-72
2022/11/04 05:04:52;;;;;;;5.25;4.13;;;;;;;8.52;100.00;100325.38;10584901;28;20126;-72
2022/11/04 05:09:52;;;;;;;8.63;4.32;;;;;;;8.62;100.00;100330.41;10584787;28;20120;-72
2022/11/04 05:14:52;;;;;;;11.00;4.13;;;;;;;8.65;100.00;100337.25;10584626;28;20042;-73
2022/11/04 05:19:53;;;;;;;8.05;4.32;;;;;;;8.65;100.00;100342.66;10583878;28;20040;-71
2022/11/04 05:24:53;;;;;;;8.90;3.72;;;;;;;8.70;100.00;100353.72;10565542;28;20020;-73
2022/11/04 05:29:53;;;;;;;9.85;4.72;;;;;;;8.67;100.00;100363.03;10584882;28;20032;-76
2022/11/04 05:34:54;;;;;;;3.60;3.20;;;;;;;8.71;100.00;100377.81;10584441;28;20393;-75
2022/11/04 05:39:54;;;;;;;5.53;3.80;;;;;;;8.83;100.00;100378.91;10584005;28;20032;-76
2022/11/04 05:44:55;;;;;;;5.65;4.35;;;;;;;8.96;100.00;100383.53;10583420;28;20027;-77
2022/11/04 05:49:55;;;;;;;3.30;3.00;;;;;;;9.03;100.00;100389.84;10582201;28;20375;-77
2022/11/04 05:54:55;;;;;;;26.10;5.28;;;;;;;9.08;100.00;100378.41;10581919;28;20048;-72
2022/11/04 05:59:56;;;;;;;10.23;4.65;;;;;;;9.06;100.00;100375.06;10582990;28;20028;-72
2022/11/04 06:04:56;;;;;;;6.60;4.82;;;;;;;9.09;100.00;100393.59;10580483;28;20059;-74
2022/11/04 06:09:56;;;;;;;10.23;5.85;;;;;;;9.00;100.00;100398.34;10582057;28;20051;-72
2022/11/04 06:14:57;;;;;;;6.75;6.15;;;;;;;8.88;100.00;100391.81;10582906;28;20085;-71
2022/11/04 06:19:57;;;;;;;8.80;5.93;;;;;;;8.70;100.00;100388.78;10582059;28;20036;-72
2022/11/04 06:24:58;;;;;;;9.73;5.50;;;;;;;8.55;100.00;100397.84;10581819;28;20078;-71
2022/11/04 06:29:58;;;;;;;11.52;7.65;;;;;;;8.47;100.00;100397.16;10579910;28;20116;-71
2022/11/04 06:34:58;;;;;;;7.53;6.40;;;;;;;8.40;100.00;100394.41;10579819;28;20487;-71
2022/11/04 06:39:59;;;;;;;8.30;4.78;;;;;;;8.38;100.00;100391.88;10582143;28;20379;-71
2022/11/04 06:44:59;;;;;;;11.18;6.40;;;;;;;8.35;100.00;100399.50;10582566;28;20081;-71
2022/11/04 06:50:00;;;;;;;13.07;5.32;;;;;;;8.35;100.00;100397.66;10582536;28;20035;-70
2022/11/04 06:55:01;;;;;;;11.43;6.97;;;;;;;8.48;100.00;100402.34;10584672;28;20467;-71
2022/11/04 07:00:02;;;;;;;9.20;5.88;;;;;;;8.61;100.00;100413.25;10581406;28;20035;-71
2022/11/04 07:05:02;;;;;;;20.80;7.65;;;;;;;8.76;100.00;100415.00;10563398;28;20063;-71
2022/11/04 07:10:03;;;;;;;16.27;8.23;;;;;;;8.87;100.00;100419.00;10580461;28;20345;-72
2022/11/04 07:15:03;;;;;;;18.38;8.77;;;;;;;9.01;100.00;100434.28;10581866;28;20077;-71
2022/11/04 07:20:04;;;;;;;19.27;9.05;;;;;;;9.10;100.00;100448.47;10579884;28;20127;-71
2022/11/04 07:25:05;;;;;;;16.42;8.98;;;;;;;9.44;100.00;100443.00;10580401;28;20085;-71
2022/11/04 07:30:06;;;;;;;16.50;9.98;;;;;;;9.48;100.00;100457.81;10581475;28;20036;-71
2022/11/04 07:35:07;;;;;;;16.25;8.90;;;;;;;9.61;100.00;100475.13;10587365;28;20340;-71
2022/11/04 07:40:08;;;;;;;20.55;10.27;;;;;;;9.66;100.00;100475.34;10587470;28;20497;-71
2022/11/04 07:45:08;;;;;;;13.13;9.57;;;;;;;9.68;100.00;100478.69;10587224;28;20057;-70
2022/11/04 07:50:09;;;;;;;14.60;9.73;;;;;;;9.72;100.00;100488.88;10570964;28;20475;-71
2022/11/04 07:55:09;;;;;;;15.57;10.48;;;;;;;9.88;100.00;100503.91;10587028;28;20043;-71
2022/11/04 08:00:10;;;;;;;12.68;10.15;;;;;;;10.25;100.00;100501.75;10587405;28;20036;-72
2022/11/04 08:05:13;;;;;;;22.02;13.63;;;;;;;11.44;100.00;100500.03;10585629;28;20447;-69
2022/11/04 08:10:14;;;;;;;21.25;13.82;;;;;;;12.31;100.00;100507.59;10586820;28;20069;-69
2022/11/04 08:15:14;;;;;;;18.40;14.40;;;;;;;13.02;100.00;100519.19;10586634;28;20479;-69
2022/11/04 08:20:15;;;;;;;15.40;13.82;;;;;;;13.73;100.00;100518.69;10585720;28;20088;-69
2022/11/04 08:25:15;;;;;;;14.35;9.35;;;;;;;14.35;100.00;100517.66;10586833;28;20466;-69
2022/11/04 08:30:16;;;;;;;15.18;7.45;;;;;;;14.85;100.00;100530.97;10586815;28;20507;-68
2022/11/04 08:35:16;;;;;;;5.80;5.25;;;;;;;14.23;100.00;100547.59;10567671;28;20032;-71
2022/11/04 08:40:16;;;;;;;10.98;5.38;;;;;;;14.50;100.00;100547.22;10585913;28;20042;-70
2022/11/04 08:45:17;;;;;;;4.30;3.85;;;;;;;14.34;100.00;100556.88;10584756;28;20028;-70
2022/11/04 08:50:18;;;;;;;7.40;4.72;;;;;;;14.23;100.00;100563.06;10586536;28;20032;-68
2022/11/04 08:55:18;;;;;;;4.63;3.22;;;;;;;14.11;100.00;100560.31;10585668;27;20032;-69
2022/11/04 09:00:19;;;;;;;8.00;4.30;;;;;;;13.37;100.00;100573.91;10584896;28;20035;-70
2022/11/04 09:05:20;;;;;;;5.35;4.85;;;;;;;12.91;100.00;100569.66;10584743;28;20448;-69
2022/11/04 09:10:21;;;;;;;5.65;4.78;;;;;;;12.66;100.00;100574.22;10584546;28;20052;-70
2022/11/04 09:15:21;;;;;;;6.40;5.20;;;;;;;12.63;100.00;100578.22;10583221;28;20036;-69
2022/11/04 09:20:22;;;;;;;14.40;4.60;;;;;;;13.70;100.00;100575.44;10583005;28;20401;-68
2022/11/04 09:25:22;;;;;;;4.07;3.78;;;;;;;14.79;100.00;100564.63;10583395;28;20085;-68
2022/11/04 09:30:23;;;;;;;7.78;4.55;;;;;;;15.13;100.00;100590.28;10582549;28;20050;-67
2022/11/04 09:35:23;;;;;;;8.50;4.05;;;;;;;14.28;100.00;100593.19;10583668;28;20383;-68
2022/11/04 09:40:23;;;;;;;4.15;3.67;;;;;;;13.80;100.00;100596.69;10583517;28;20043;-67
2022/11/04 09:45:26;;;;;;;6.13;2.90;;;;;;;13.63;100.00;100612.78;10581800;28;20470;-67
2022/11/04 09:50:29;;;;;;;3.35;2.70;;;;;;;13.57;100.00;100614.50;10583169;28;20019;-66
2022/11/04 09:55:34;;;;;;;6.50;4.00;;;;;;;13.56;100.00;100623.75;10564969;28;20115;-68
2022/11/04 10:00:35;;;;;;;7.35;4.00;;;;;;;13.73;100.00;100632.97;10583299;28;20035;-67
2022/11/04 10:05:47;;;;;;;8.35;4.85;;;;;;;14.72;100.00;100637.50;10582861;28;20031;-66
2022/11/04 10:11:09;;;;;;;7.10;4.10;;;;;;;14.62;100.00;100651.66;10581493;28;20180;-66
2022/11/04 10:16:22;;;;;;;12.40;3.83;;;;;;;14.71;100.00;100663.06;10566150;28;20039;-67
2022/11/04 10:21:44;;;;;;;4.10;3.35;;;;;;;14.55;100.00;100680.88;10549894;28;20023;-66
2022/11/04 10:26:56;;;;;;;3.85;3.28;;;;;;;14.68;100.00;100686.19;10583202;28;20031;-66
2022/11/04 10:31:57;;;;;;;6.00;3.20;;;;;;;14.59;100.00;100684.81;10565693;28;20027;-66
2022/11/04 10:36:57;;;;;;;5.75;3.10;;;;;;;14.55;100.00;100684.47;10564120;28;20059;-65
2022/11/04 10:41:58;;;;;;;3.72;3.25;;;;;;;14.43;100.00;100688.97;10582510;28;20028;-66
2022/11/04 10:47:30;;;;;;;18.40;3.95;;;;;;;14.34;100.00;100703.97;10580540;28;20447;-66
2022/11/04 10:52:34;;;;;;;3.85;2.28;;;;;;;14.17;100.00;100712.72;10581662;28;20028;-66
2022/11/04 10:57:34;;;;;;;2.70;2.40;;;;;;;14.08;100.00;100718.69;10580564;28;20114;-66
2022/11/04 11:02:45;;;;;;;4.43;3.88;;;;;;;14.27;100.00;100719.56;10579619;28;20032;-66
2022/11/04 11:07:51;;;;;;;6.75;3.53;;;;;;;15.58;100.00;100716.09;10584514;28;20055;-66
2022/11/04 11:13:03;;;;;;;5.83;4.40;;;;;;;16.04;100.00;100727.31;10588509;28;20387;-66
2022/11/04 11:18:16;;;;;;;8.77;3.25;;;;;;;15.91;100.00;100736.56;10589877;28;20035;-67
2022/11/04 11:23:38;;;;;;;5.05;3.30;;;;;;;16.10;100.00;100750.13;10570436;28;20040;-66
2022/11/04 11:28:39;;;;;;;2.88;2.22;;;;;;;16.04;100.00;100763.63;10588949;28;20463;-67
2022/11/04 11:33:45;;;;;;;3.72;1.77;;;;;;;13.67;100.00;100778.09;10571759;28;20035;-68
2022/11/04 11:38:55;;;;;;;1.02;1.02;;;;;;;12.52;100.00;100786.19;10573205;28;20086;-68
2022/11/04 11:44:03;;;;;;;5.60;2.28;;;;;;;12.14;100.00;100787.94;10589856;28;20030;-68
2022/11/04 11:49:04;;;;;;;4.90;2.28;;;;;;;11.93;100.00;100800.66;10588963;28;20479;-69
2022/11/04 11:54:16;;;;;;;2.15;1.63;;;;;;;11.86;100.00;100807.97;10589155;28;20055;-70
2022/11/04 11:59:35;;;;;;;4.43;1.80;;;;;;;11.79;100.00;100818.78;10588690;28;20424;-68
2022/11/04 12:04:36;;;;;;;5.25;1.90;;;;;;;11.86;100.00;100818.81;10589740;28;20433;-68
2022/11/04 12:09:46;;;;;;;5.72;1.90;;;;;;;12.08;100.00;100827.59;10569926;28;20028;-67
2022/11/04 12:14:58;;;;;;;3.53;1.52;;;;;;;12.48;100.00;100827.56;10569617;28;20051;-68
2022/11/04 12:20:04;;;;;;;3.65;2.03;;;;;;;12.79;100.00;100833.13;10585448;28;20114;-67
2022/11/04 12:25:18;;;;;;;1.30;1.15;;;;;;;12.88;100.00;100831.00;10586971;28;20027;-67
2022/11/04 12:30:23;;;;;;;1.02;1.02;;;;;;;12.76;100.00;100829.97;10584627;28;20043;-67
2022/11/04 12:35:50;;;;;;;3.35;1.35;;;;;;;12.76;100.00;100836.28;10586298;28;20040;-67
2022/11/04 12:41:12;;;;;;;1.08;0.95;;;;;;;13.01;100.00;100849.13;10585379;28;20039;-67
2022/11/04 12:46:46;;;;;;;1.45;1.33;;;;;;;12.94;100.00;100875.50;10585799;28;20031;-67
2022/11/04 12:52:12;;;;;;;4.78;0.70;;;;;;;12.38;100.00;100884.16;10584937;28;20035;-72
2022/11/04 12:57:47;;;;;;;1.50;0.98;;;;;;;11.89;100.00;100896.25;10584187;28;20459;-74
2022/11/04 13:02:55;;;;;;;3.03;1.10;;;;;;;11.54;100.00;100928.91;10566682;28;20031;-72
2022/11/04 13:08:01;;;;;;;4.78;1.73;;;;;;;11.33;100.00;100924.47;10566557;28;20024;-73
2022/11/04 13:13:02;;;;;;;4.47;1.30;;;;;;;11.17;100.00;100917.50;10567127;28;20047;-74
2022/11/04 13:18:04;;;;;;;1.55;1.40;;;;;;;10.99;100.00;100928.03;10584739;28;20121;-74
2022/11/04 13:23:05;;;;;;;3.55;1.58;;;;;;;10.74;100.00;100924.94;10584270;28;20112;-71
2022/11/04 13:28:11;;;;;;;4.72;1.67;;;;;;;10.64;100.00;100942.38;10565590;28;20067;-71
2022/11/04 13:33:14;;;;;;;4.07;2.00;;;;;;;10.44;100.00;100936.81;10566738;28;20058;-72
2022/11/04 13:38:18;;;;;;;8.98;1.67;;;;;;;10.50;100.00;100939.75;10584056;28;20027;-71
2022/11/04 13:43:37;;;;;;;4.53;2.60;;;;;;;10.61;100.00;100956.31;10583279;28;20415;-72
2022/11/04 13:48:50;;;;;;;1.13;1.13;;;;;;;10.75;100.00;100951.81;10582013;28;20036;-70
2022/11/04 13:53:52;;;;;;;7.47;1.17;;;;;;;10.82;100.00;100949.19;10581743;28;20031;-72
2022/11/04 13:58:54;;;;;;;2.15;1.35;;;;;;;10.87;100.00;100949.41;10565424;28;20031;-71
2022/11/04 14:04:17;;;;;;;1.55;1.45;;;;;;;10.91;100.00;100959.66;10581066;28;20039;-72
2022/11/04 14:09:42;;;;;;;9.35;3.08;;;;;;;11.01;100.00;100969.28;10581843;28;20024;-71
2022/11/04 14:14:48;;;;;;;2.60;1.70;;;;;;;11.04;100.00;100977.03;10583358;28;20054;-71
2022/11/04 14:19:59;;;;;;;3.92;1.77;;;;;;;11.07;100.00;100982.91;10549424;28;20051;-71
2022/11/04 14:25:02;;;;;;;7.88;2.95;;;;;;;11.04;100.00;100979.72;10581895;28;20028;-72
2022/11/04 14:30:03;;;;;;;4.50;2.78;;;;;;;11.05;100.00;100994.97;10582098;28;20034;-72
2022/11/04 14:35:05;;;;;;;5.60;2.45;;;;;;;11.05;100.00;100994.97;10581717;28;20042;-72
2022/11/04 14:40:07;;;;;;;4.13;3.10;;;;;;;11.10;100.00;101011.47;10580933;28;20028;-71
2022/11/04 14:45:08;;;;;;;8.27;3.30;;;;;;;11.05;100.00;101014.78;10580999;28;20028;-73
2022/11/04 14:50:17;;;;;;;2.67;2.33;;;;;;;11.03;100.00;101040.41;10563439;28;20027;-71
2022/11/04 14:55:31;;;;;;;2.75;2.50;;;;;;;10.90;100.00;101036.53;10580427;28;20027;-71
2022/11/04 15:00:35;;;;;;;4.60;1.85;;;;;;;10.80;100.00;101019.78;10548068;28;20063;-71
2022/11/04 15:05:36;;;;;;;9.98;3.63;;;;;;;10.74;100.00;101027.88;10582329;28;20051;-72
2022/11/04 15:10:36;;;;;;;11.77;3.80;;;;;;;10.71;100.00;101040.75;10563186;28;20047;-71
2022/11/04 15:15:38;;;;;;;12.30;3.10;;;;;;;10.83;100.00;101051.91;10582676;28;20043;-71
2022/11/04 15:20:51;;;;;;;11.35;3.30;;;;;;;10.90;100.00;101043.84;10580223;28;20043;-73
2022/11/04 15:25:51;;;;;;;5.22;3.38;;;;;;;10.94;100.00;101054.09;10565130;28;20023;-72
2022/11/04 15:30:56;;;;;;;14.68;4.75;;;;;;;10.92;100.00;101055.34;10578798;28;20102;-72
2022/11/04 15:35:57;;;;;;;4.97;4.03;;;;;;;10.99;100.00;101058.09;10579237;28;20039;-71
2022/11/04 15:42:35;;;;;;;8.32;3.45;;;;;;;10.97;100.00;101063.69;10545854;28;20524;-72
2022/11/04 15:46:18;;;;;;;5.45;3.53;;;;;;;10.92;100.00;101072.41;10579624;28;20032;-71
2022/11/04 15:51:22;;;;;;;16.85;4.65;;;;;;;10.88;100.00;101076.56;10579657;28;20024;-71
2022/11/04 15:56:27;;;;;;;9.88;3.72;;;;;;;10.78;100.00;101088.75;10587470;28;20052;-71
2022/11/04 16:01:27;;;;;;;11.32;3.67;;;;;;;10.71;100.00;101091.38;10587521;28;20070;-71
2022/11/04 16:07:09;;;;;;;3.95;3.50;;;;;;;10.61;100.00;101099.00;10585935;28;20064;-71
2022/11/04 16:12:14;;;;;;;4.10;2.20;;;;;;;10.47;100.00;101112.41;10587174;27;20048;-71
2022/11/04 16:17:14;;;;;;;5.68;2.78;;;;;;;10.31;100.00;101101.81;10587440;28;20104;-71
2022/11/04 16:22:34;;;;;;;12.98;2.72;;;;;;;10.21;100.00;101117.47;10585611;28;20429;-71
2022/11/04 16:27:35;;;;;;;4.90;3.33;;;;;;;10.05;100.00;101123.97;10585360;28;20029;-71
2022/11/04 16:32:52;;;;;;;6.30;3.50;;;;;;;9.83;100.00;101131.16;10585819;28;20126;-70
2022/11/04 16:37:54;;;;;;;5.85;2.92;;;;;;;9.66;100.00;101127.78;10567947;28;20027;-71
2022/11/04 16:42:55;;;;;;;11.32;3.28;;;;;;;9.44;100.00;101140.34;10568786;28;20058;-70
2022/11/04 16:47:56;;;;;;;7.60;4.05;;;;;;;9.27;100.00;101161.28;10566559;28;20035;-71
2022/11/04 16:52:56;;;;;;;6.22;4.10;;;;;;;9.13;100.00;101153.16;10567765;28;20080;-71
2022/11/04 16:57:58;;;;;;;11.52;3.60;;;;;;;9.12;100.00;101156.84;10567356;28;20040;-71
2022/11/04 17:03:00;;;;;;;8.18;3.08;;;;;;;9.24;100.00;101152.69;10583962;28;20027;-71
2022/11/04 17:08:00;;;;;;;8.30;3.92;;;;;;;9.34;100.00;101171.38;10585343;28;20050;-70
2022/11/04 17:13:01;;;;;;;6.05;3.30;;;;;;;9.34;100.00;101169.50;10583159;28;20055;-71
2022/11/04 17:18:01;;;;;;;13.65;4.22;;;;;;;9.36;100.00;101166.63;10585370;28;20043;-70
2022/11/04 17:23:02;;;;;;;9.63;4.20;;;;;;;9.30;100.00;101179.84;10584742;28;20024;-71
2022/11/04 17:28:02;;;;;;;9.20;2.88;;;;;;;9.19;100.00;101187.53;10584178;28;20419;-70
2022/11/04 17:33:07;;;;;;;15.30;3.20;;;;;;;9.07;100.00;101204.19;10585548;28;20160;-70
2022/11/04 17:38:09;;;;;;;9.23;2.83;;;;;;;8.92;100.00;101199.72;10583831;28;20382;-70
2022/11/04 17:48:31;;;;;;;10.68;4.25;;;;;;;8.59;100.00;101208.88;10583066;28;20464;-70
2022/11/04 17:53:31;;;;;;;5.95;3.00;;;;;;;8.46;100.00;101214.00;10582195;28;20391;-71
2022/11/04 17:58:31;;;;;;;5.97;2.83;;;;;;;8.45;100.00;101233.06;10582798;28;20032;-70
2022/11/04 18:03:32;;;;;;;15.23;4.10;;;;;;;8.36;100.00;101238.47;10582461;28;20038;-70
2022/11/04 18:08:33;;;;;;;8.00;3.80;;;;;;;8.23;100.00;101240.03;10584778;28;20405;-71
2022/11/04 18:13:33;;;;;;;9.38;4.63;;;;;;;8.11;100.00;101235.00;10581244;28;20123;-71
2022/11/04 18:18:34;;;;;;;16.15;5.82;;;;;;;8.04;100.00;101247.50;10582452;28;20038;-70
2022/11/04 18:23:34;;;;;;;12.98;4.97;;;;;;;7.97;100.00;101265.38;10582739;28;20039;-71
2022/11/04 18:28:37;;;;;;;16.00;6.93;;;;;;;7.88;100.00;101264.56;10582122;28;20027;-68
2022/11/04 18:33:41;;;;;;;13.95;7.50;;;;;;;7.83;100.00;101263.38;10580339;28;20087;-71
2022/11/04 18:38:41;;;;;;;11.05;6.38;;;;;;;7.89;100.00;101276.19;10581876;28;20501;-71
2022/11/04 18:43:42;;;;;;;24.20;7.22;;;;;;;8.02;100.00;101284.59;10580610;28;20066;-70
2022/11/04 18:48:46;;;;;;;14.45;8.63;;;;;;;8.18;100.00;101290.97;10581016;28;20039;-71
2022/11/04 18:53:47;;;;;;;20.95;12.25;;;;;;;8.31;100.00;101289.41;10563647;28;20032;-70
2022/11/04 18:58:48;;;;;;;18.33;10.80;;;;;;;8.61;100.00;101306.72;10582091;28;20040;-71
2022/11/04 19:03:48;;;;;;;26.20;9.45;;;;;;;8.89;100.00;101316.22;10582130;28;20035;-72
2022/11/04 19:08:50;;;;;;;6.70;5.18;;;;;;;9.05;100.00;101316.97;10580865;28;20061;-70
2022/11/04 19:13:57;;;;;;;10.27;3.10;;;;;;;8.77;100.00;101329.25;10583527;28;20105;-71
2022/11/04 19:18:58;;;;;;;3.38;1.75;;;;;;;8.49;100.00;101307.28;10581282;28;20031;-72
2022/11/04 19:23:59;;;;;;;6.93;2.55;;;;;;;8.33;100.00;101310.84;10581314;28;20044;-71
2022/11/04 19:28:59;;;;;;;4.50;2.90;;;;;;;8.19;100.00;101314.22;10585548;28;20027;-72
2022/11/04 19:34:03;;;;;;;6.32;2.85;;;;;;;8.07;100.00;101311.91;10589860;28;20039;-72
2022/11/04 19:39:04;;;;;;;6.63;3.85;;;;;;;8.07;100.00;101316.44;10574291;28;20082;-72
2022/11/04 19:44:06;;;;;;;8.30;3.00;;;;;;;8.06;100.00;101330.94;10594561;28;20035;-71
2022/11/04 19:49:07;;;;;;;7.70;2.85;;;;;;;8.24;100.00;101328.91;10598088;28;20077;-73
2022/11/04 19:54:08;;;;;;;6.80;3.10;;;;;;;8.36;100.00;101343.72;10577666;28;20040;-70
2022/11/04 19:59:09;;;;;;;10.32;3.83;;;;;;;8.50;100.00;101352.16;10587665;28;20036;-72
2022/11/04 20:04:09;;;;;;;2.90;2.63;;;;;;;8.56;100.00;101357.69;10570720;28;20027;-72
2022/11/04 20:09:10;;;;;;;5.90;2.60;;;;;;;8.58;100.00;101366.47;10586540;28;20165;-72
2022/11/04 20:14:10;;;;;;;3.10;2.00;;;;;;;8.53;100.00;101360.72;10588978;28;20162;-71
2022/11/04 20:19:10;;;;;;;10.68;3.08;;;;;;;8.50;100.00;101373.72;10585329;28;20139;-71
2022/11/04 20:24:11;;;;;;;2.78;2.15;;;;;;;8.56;100.00;101387.38;10587735;28;20032;-72
2022/11/04 20:29:14;;;;;;;4.97;2.08;;;;;;;8.58;100.00;101385.38;10586203;28;20122;-73
2022/11/04 20:34:15;;;;;;;6.15;2.80;;;;;;;8.54;100.00;101394.81;10585491;28;20114;-71
2022/11/04 20:39:16;;;;;;;7.55;4.32;;;;;;;8.51;100.00;101405.09;10584785;28;20032;-71
2022/11/04 20:44:17;;;;;;;28.35;12.20;;;;;;;8.61;100.00;101403.03;10569316;28;20469;-72
2022/11/04 20:49:17;;;;;;;20.40;10.82;;;;;;;8.67;100.00;101398.81;10586096;28;20122;-72
2022/11/04 20:54:18;;;;;;;20.98;7.78;;;;;;;8.56;100.00;101402.75;10585959;28;20053;-71
2022/11/04 20:59:18;;;;;;;14.48;6.63;;;;;;;8.59;100.00;101413.19;10584438;28;20039;-72
2022/11/04 21:04:19;;;;;;;15.10;5.60;;;;;;;8.66;100.00;101429.53;10568332;28;20347;-71
2022/11/04 21:09:20;;;;;;;10.27;5.15;;;;;;;8.64;100.00;101429.69;10584607;28;20020;-71
2022/11/04 21:14:20;;;;;;;9.32;4.82;;;;;;;8.65;100.00;101438.63;10585521;28;20067;-71
2022/11/04 21:19:20;;;;;;;15.40;6.03;;;;;;;8.67;100.00;101444.72;10584869;28;20134;-72
2022/11/04 21:24:21;;;;;;;8.68;5.18;;;;;;;8.61;100.00;101449.81;10566200;28;20530;-71
2022/11/04 21:29:21;;;;;;;7.13;3.72;;;;;;;8.55;100.00;101450.50;10584271;28;20039;-72
2022/11/04 21:34:22;;;;;;;11.13;5.47;;;;;;;8.48;100.00;101444.06;10583469;28;20088;-71
2022/11/04 21:39:22;;;;;;;7.00;2.92;;;;;;;8.44;100.00;101453.53;10585080;28;20035;-71
2022/11/04 21:44:23;;;;;;;11.27;4.93;;;;;;;8.37;100.00;101457.91;10585253;28;20028;-71
2022/11/04 21:49:23;;;;;;;9.15;3.10;;;;;;;8.26;100.00;101469.84;10583400;28;20459;-72
2022/11/04 21:54:26;;;;;;;5.85;2.50;;;;;;;8.10;100.00;101465.31;10584642;28;20096;-71
2022/11/04 21:59:26;;;;;;;5.60;2.80;;;;;;;8.03;100.00;101466.97;10583272;28;20028;-70
2022/11/04 22:04:26;;;;;;;5.30;2.95;;;;;;;7.97;100.00;101472.19;10581631;28;20069;-73
2022/11/04 22:09:27;;;;;;;18.42;3.58;;;;;;;7.86;100.00;101476.06;10565158;28;20036;-72
2022/11/04 22:14:28;;;;;;;13.00;3.58;;;;;;;7.74;100.00;101477.38;10582020;28;20411;-71
2022/11/04 22:19:28;;;;;;;5.32;3.17;;;;;;;7.61;100.00;101476.00;10581343;28;20115;-72
2022/11/04 22:24:29;;;;;;;6.72;3.40;;;;;;;7.49;100.00;101477.28;10581646;28;20471;-73
2022/11/04 22:29:29;;;;;;;12.70;3.00;;;;;;;7.44;100.00;101485.03;10582341;28;20035;-71
2022/11/04 22:34:30;;;;;;;5.55;3.03;;;;;;;7.45;100.00;101484.88;10582658;28;20065;-72
2022/11/04 22:39:30;;;;;;;9.43;3.58;;;;;;;7.46;100.00;101489.25;10582580;28;20062;-71
2022/11/04 22:44:30;;;;;;;4.70;3.28;;;;;;;7.37;100.00;101483.97;10582459;28;20155;-72
2022/11/04 22:49:31;;;;;;;9.95;3.70;;;;;;;7.30;100.00;101477.56;10581785;28;20028;-71
2022/11/04 22:54:31;;;;;;;10.85;3.88;;;;;;;7.23;100.00;101480.06;10580457;28;20086;-72
2022/11/04 22:59:32;;;;;;;18.80;3.75;;;;;;;7.11;100.00;101470.56;10579979;28;20039;-71
2022/11/04 23:04:32;;;;;;;7.18;3.63;;;;;;;7.00;100.00;101477.09;10588237;28;20036;-71
2022/11/04 23:18:40;;;;;;;4.60;3.63;;;;;;;6.90;100.00;101476.38;10589435;28;20032;-72
2022/11/04 23:20:13;;;;;;;13.43;4.28;;;;;;;6.72;100.00;101471.88;10588815;28;20044;-72
2022/11/04 23:25:13;;;;;;;6.15;3.47;;;;;;;6.69;100.00;101474.03;10590969;28;20070;-71
2022/11/04 23:30:20;;;;;;;6.68;3.65;;;;;;;6.70;100.00;101481.09;10589240;28;20123;-73
